createdAt,value
2023-05-21T00:02:04.269Z,2.40
2023-05-21T00:05:47.320Z,2.58
2023-05-21T00:09:29.189Z,2.97
2023-05-21T00:13:11.480Z,3.00
2023-05-21T00:16:53.285Z,2.90
2023-05-21T00:20:35.613Z,3.05
2023-05-21T00:24:17.488Z,3.40
2023-05-21T00:27:59.245Z,3.40
2023-05-21T00:31:41.067Z,3.55
2023-05-21T00:35:22.922Z,2.85
2023-05-21T00:39:05.078Z,3.20
2023-05-21T00:42:48.036Z,2.88
2023-05-21T00:46:30.201Z,2.45
2023-05-21T00:50:12.409Z,2.13
2023-05-21T00:53:54.575Z,2.90
2023-05-21T00:57:39.415Z,3.10
2023-05-21T01:01:21.199Z,2.90
2023-05-21T01:05:07.028Z,2.50
2023-05-21T01:08:50.825Z,3.05
2023-05-21T01:12:33.870Z,2.80
2023-05-21T01:16:17.761Z,3.25
2023-05-21T01:20:00.101Z,2.60
2023-05-21T01:23:41.955Z,2.90
2023-05-21T01:27:23.738Z,2.85
2023-05-21T01:31:31.282Z,2.70
2023-05-21T01:35:33.903Z,2.65
2023-05-21T01:39:32.196Z,2.40
2023-05-21T01:43:15.361Z,2.53
2023-05-21T01:46:58.499Z,2.70
2023-05-21T01:50:41.649Z,2.60
2023-05-21T01:54:24.030Z,2.38
2023-05-21T01:58:05.828Z,2.53
2023-05-21T02:01:47.687Z,3.13
2023-05-21T02:05:29.442Z,2.60
2023-05-21T02:09:11.421Z,2.80
2023-05-21T02:12:53.309Z,3.00
2023-05-21T02:16:35.443Z,2.60
2023-05-21T02:20:17.356Z,2.88
2023-05-21T02:23:59.088Z,2.78
2023-05-21T02:27:42.424Z,2.80
2023-05-21T02:31:24.202Z,2.40
2023-05-21T02:35:06.311Z,3.08
2023-05-21T02:38:48.079Z,2.80
2023-05-21T02:42:30.391Z,2.78
2023-05-21T02:46:12.168Z,2.50
2023-05-21T02:49:54.352Z,2.70
2023-05-21T02:53:36.117Z,2.97
2023-05-21T02:57:18.362Z,3.10
2023-05-21T03:01:00.166Z,2.97
2023-05-21T03:04:46.376Z,3.35
2023-05-21T03:08:28.437Z,2.95
2023-05-21T03:12:10.686Z,2.80
2023-05-21T03:15:56.244Z,2.85
2023-05-21T03:19:37.960Z,2.80
2023-05-21T03:23:19.720Z,2.78
2023-05-21T03:27:01.511Z,3.40
2023-05-21T03:30:46.365Z,2.40
2023-05-21T03:34:28.367Z,2.60
2023-05-21T03:38:10.115Z,2.70
2023-05-21T03:41:51.886Z,3.00
2023-05-21T03:45:33.857Z,2.72
2023-05-21T03:49:15.911Z,2.60
2023-05-21T03:52:57.902Z,2.80
2023-05-21T03:56:39.687Z,2.88
2023-05-21T04:00:21.690Z,3.08
2023-05-21T04:04:03.620Z,2.63
2023-05-21T04:07:46.491Z,3.08
2023-05-21T04:11:28.277Z,2.80
2023-05-21T04:15:10.457Z,3.15
2023-05-21T04:18:52.386Z,2.80
2023-05-21T04:22:35.300Z,3.45
2023-05-21T04:26:17.053Z,3.20
2023-05-21T04:29:58.812Z,3.15
2023-05-21T04:33:42.215Z,3.00
2023-05-21T04:37:27.867Z,2.78
2023-05-21T04:41:12.202Z,2.63
2023-05-21T04:44:55.574Z,3.05
2023-05-21T04:48:37.316Z,2.75
2023-05-21T04:52:19.206Z,3.10
2023-05-21T04:56:01.016Z,2.88
2023-05-21T04:59:43.714Z,2.65
2023-05-21T05:03:25.620Z,2.90
2023-05-21T05:07:07.536Z,2.85
2023-05-21T05:10:49.271Z,2.60
2023-05-21T05:14:31.136Z,3.10
2023-05-21T05:18:13.269Z,2.63
2023-05-21T05:21:55.019Z,2.60
2023-05-21T05:25:36.908Z,2.70
2023-05-21T05:29:18.799Z,2.80
2023-05-21T05:33:00.564Z,2.58
2023-05-21T05:36:42.353Z,2.90
2023-05-21T05:40:24.160Z,2.75
2023-05-21T05:44:05.932Z,2.92
2023-05-21T05:47:47.748Z,2.55
2023-05-21T05:51:30.254Z,2.47
2023-05-21T05:55:12.542Z,2.90
2023-05-21T05:58:54.289Z,2.33
2023-05-21T06:02:37.315Z,2.63
2023-05-21T06:06:19.354Z,2.80
2023-05-21T06:10:01.133Z,2.78
2023-05-21T06:13:43.260Z,2.90
2023-05-21T06:17:25.084Z,3.25
2023-05-21T06:21:06.928Z,2.58
2023-05-21T06:24:49.929Z,2.90
2023-05-21T06:28:31.653Z,2.65
2023-05-21T06:32:13.672Z,2.97
2023-05-21T06:35:55.663Z,2.90
2023-05-21T06:39:37.412Z,3.30
2023-05-21T06:43:19.123Z,2.72
2023-05-21T06:47:01.411Z,2.67
2023-05-21T06:50:43.602Z,2.90
2023-05-21T06:54:26.996Z,3.13
2023-05-21T06:58:08.926Z,3.40
2023-05-21T07:01:50.751Z,3.00
2023-05-21T07:05:32.486Z,2.92
2023-05-21T07:09:14.310Z,3.00
2023-05-21T07:12:56.053Z,3.00
2023-05-21T07:16:37.869Z,3.20
2023-05-21T07:20:19.632Z,3.10
2023-05-21T07:24:01.515Z,3.40
2023-05-21T07:27:43.265Z,3.20
2023-05-21T07:31:25.412Z,3.50
2023-05-21T07:35:07.423Z,3.80
2023-05-21T07:38:49.179Z,3.08
2023-05-21T07:42:31.261Z,3.20
2023-05-21T07:46:13.027Z,3.20
2023-05-21T07:49:54.746Z,3.30
2023-05-21T07:53:36.482Z,3.47
2023-05-21T07:57:18.241Z,3.25
2023-05-21T08:00:59.986Z,3.78
2023-05-21T08:04:42.567Z,3.33
2023-05-21T08:08:25.620Z,2.78
2023-05-21T08:12:07.751Z,3.08
2023-05-21T08:15:52.081Z,2.92
2023-05-21T08:19:34.870Z,2.95
2023-05-21T08:23:16.634Z,3.22
2023-05-21T08:26:58.389Z,3.17
2023-05-21T08:30:40.150Z,2.72
2023-05-21T08:34:21.883Z,2.85
2023-05-21T08:38:03.611Z,3.10
2023-05-21T08:41:49.687Z,3.50
2023-05-21T08:45:38.272Z,3.05
2023-05-21T08:49:27.492Z,3.00
2023-05-21T08:53:16.030Z,3.47
2023-05-21T08:57:09.851Z,2.85
2023-05-21T09:00:51.801Z,2.80
2023-05-21T09:04:34.582Z,3.03
2023-05-21T09:08:27.299Z,2.58
2023-05-21T09:12:09.135Z,2.88
2023-05-21T09:15:51.784Z,2.60
2023-05-21T09:19:33.692Z,2.60
2023-05-21T09:23:17.938Z,2.75
2023-05-21T09:26:59.756Z,2.58
2023-05-21T09:30:52.029Z,2.78
2023-05-21T09:34:36.223Z,2.45
2023-05-21T09:38:18.203Z,2.72
2023-05-21T09:41:59.968Z,2.45
2023-05-21T09:45:54.531Z,2.33
2023-05-21T09:49:37.682Z,2.15
2023-05-21T09:53:19.453Z,2.40
2023-05-21T09:57:05.521Z,2.90
2023-05-21T10:00:47.429Z,2.20
2023-05-21T10:04:31.034Z,2.13
2023-05-21T10:08:15.421Z,2.20
2023-05-21T10:11:58.908Z,2.20
2023-05-21T10:15:45.777Z,2.17
2023-05-21T10:19:29.993Z,2.08
2023-05-21T10:23:13.088Z,5.22
2023-05-21T10:26:55.058Z,2.10
2023-05-21T10:30:38.034Z,4.00
2023-05-21T10:34:23.182Z,2.40
2023-05-21T10:38:06.606Z,2.20
2023-05-21T10:42:17.011Z,2.03
2023-05-21T10:46:01.661Z,1.90
2023-05-21T10:50:14.840Z,2.90
2023-05-21T10:54:08.937Z,1.50
2023-05-21T10:58:10.912Z,1.92
2023-05-21T11:01:54.048Z,2.17
2023-05-21T11:05:57.494Z,1.90
2023-05-21T11:09:39.343Z,2.00
2023-05-21T11:13:21.791Z,1.90
2023-05-21T11:17:09.571Z,1.88
2023-05-21T11:20:51.991Z,1.88
2023-05-21T11:24:36.844Z,1.88
2023-05-21T11:28:33.385Z,1.83
2023-05-21T11:32:17.236Z,2.13
2023-05-21T11:36:03.414Z,2.00
2023-05-21T11:39:46.045Z,1.92
2023-05-21T11:43:27.782Z,1.90
2023-05-21T11:47:17.905Z,1.90
2023-05-21T11:51:01.082Z,1.77
2023-05-21T11:54:50.555Z,2.13
2023-05-21T11:58:32.570Z,1.80
2023-05-21T12:02:18.606Z,1.75
2023-05-21T12:06:06.564Z,1.70
2023-05-21T12:09:50.386Z,1.90
2023-05-21T12:13:32.215Z,2.00
2023-05-21T12:17:16.876Z,1.80
2023-05-21T12:20:59.539Z,1.60
2023-05-21T12:24:41.262Z,1.70
2023-05-21T12:28:24.572Z,1.80
2023-05-21T12:32:09.199Z,1.70
2023-05-21T12:35:52.326Z,1.70
2023-05-21T12:39:43.434Z,1.90
2023-05-21T12:43:25.384Z,1.50
2023-05-21T12:47:07.476Z,1.70
2023-05-21T12:50:49.276Z,2.30
2023-05-21T12:54:34.827Z,1.60
2023-05-21T12:58:21.604Z,3.08
2023-05-21T13:02:03.689Z,1.53
2023-05-21T13:05:45.623Z,2.10
2023-05-21T13:09:27.427Z,1.52
2023-05-21T13:13:09.237Z,1.67
2023-05-21T13:16:51.006Z,1.70
2023-05-21T13:20:32.756Z,1.65
2023-05-21T13:24:14.559Z,1.85
2023-05-21T13:27:57.197Z,1.73
2023-05-21T13:31:38.979Z,1.63
2023-05-21T13:35:20.844Z,1.63
2023-05-21T13:39:02.624Z,1.70
2023-05-21T13:42:46.530Z,1.42
2023-05-21T13:46:28.438Z,1.88
2023-05-21T13:50:10.697Z,1.60
2023-05-21T13:53:52.795Z,2.00
2023-05-21T13:57:35.421Z,1.60
2023-05-21T14:01:17.215Z,1.60
2023-05-21T14:04:59.183Z,1.67
2023-05-21T14:08:41.462Z,1.83
2023-05-21T14:12:23.417Z,2.00
2023-05-21T14:16:05.807Z,2.30
2023-05-21T14:19:48.073Z,1.77
2023-05-21T14:23:29.986Z,2.63
2023-05-21T14:27:13.833Z,2.20
2023-05-21T14:30:57.012Z,1.90
2023-05-21T14:34:40.301Z,1.63
2023-05-21T14:38:22.065Z,1.60
2023-05-21T14:42:04.818Z,2.08
2023-05-21T14:45:46.668Z,1.60
2023-05-21T14:49:28.469Z,1.85
2023-05-21T14:53:11.814Z,1.67
2023-05-21T14:56:54.223Z,2.00
2023-05-21T15:00:36.695Z,1.80
2023-05-21T15:04:18.420Z,2.45
2023-05-21T15:08:00.186Z,1.67
2023-05-21T15:11:43.885Z,2.10
2023-05-21T15:15:25.717Z,1.95
2023-05-21T15:19:07.530Z,1.90
2023-05-21T15:22:49.374Z,2.00
2023-05-21T15:26:31.213Z,1.73
2023-05-21T15:30:13.164Z,2.05
2023-05-21T15:33:54.884Z,2.97
2023-05-21T15:37:36.747Z,1.70
2023-05-21T15:41:18.496Z,1.63
2023-05-21T15:45:00.448Z,1.70
2023-05-21T15:48:42.456Z,1.90
2023-05-21T15:52:25.523Z,1.95
2023-05-21T15:56:09.069Z,1.95
2023-05-21T15:59:52.464Z,1.63
2023-05-21T16:03:34.256Z,1.90
2023-05-21T16:07:16.031Z,1.95
2023-05-21T16:10:57.841Z,1.70
2023-05-21T16:14:39.572Z,1.85
2023-05-21T16:18:21.335Z,1.90
2023-05-21T16:22:03.105Z,1.90
2023-05-21T16:25:44.848Z,1.77
2023-05-21T16:29:26.597Z,1.83
2023-05-21T16:33:08.460Z,1.80
2023-05-21T16:36:51.673Z,1.83
2023-05-21T16:40:33.741Z,1.90
2023-05-21T16:44:15.556Z,1.73
2023-05-21T16:47:57.405Z,2.00
2023-05-21T16:51:39.255Z,1.90
2023-05-21T16:55:21.222Z,1.70
2023-05-21T16:59:02.984Z,2.40
2023-05-21T17:02:44.810Z,1.88
2023-05-21T17:06:26.637Z,1.85
2023-05-21T17:10:09.237Z,2.03
2023-05-21T17:13:51.003Z,1.80
2023-05-21T17:17:32.954Z,1.55
2023-05-21T17:21:14.720Z,2.00
2023-05-21T17:24:56.503Z,2.05
2023-05-21T17:28:38.304Z,1.52
2023-05-21T17:32:20.927Z,2.15
2023-05-21T17:36:03.501Z,1.90
2023-05-21T17:39:45.298Z,1.83
2023-05-21T17:43:27.716Z,1.85
2023-05-21T17:47:09.686Z,1.83
2023-05-21T17:50:51.537Z,3.13
2023-05-21T17:54:34.644Z,1.77
2023-05-21T17:58:16.390Z,2.13
2023-05-21T18:02:01.464Z,1.90
2023-05-21T18:05:43.235Z,1.88
2023-05-21T18:09:25.015Z,2.20
2023-05-21T18:13:06.800Z,2.00
2023-05-21T18:16:48.673Z,1.92
2023-05-21T18:20:30.540Z,1.80
2023-05-21T18:24:12.336Z,1.90
2023-05-21T18:27:54.112Z,2.10
2023-05-21T18:31:35.955Z,1.90
2023-05-21T18:35:17.777Z,1.83
2023-05-21T18:38:59.500Z,2.00
2023-05-21T18:42:41.526Z,2.47
2023-05-21T18:46:23.288Z,2.13
2023-05-21T18:50:05.585Z,1.80
2023-05-21T18:53:47.710Z,2.08
2023-05-21T18:57:29.921Z,2.22
2023-05-21T19:01:11.841Z,2.00
2023-05-21T19:04:53.678Z,2.30
2023-05-21T19:08:35.593Z,2.22
2023-05-21T19:12:17.336Z,2.38
2023-05-21T19:15:59.141Z,2.50
2023-05-21T19:19:41.042Z,2.22
2023-05-21T19:23:24.588Z,2.30
2023-05-21T19:27:06.481Z,2.35
2023-05-21T19:30:48.269Z,2.60
2023-05-21T19:34:30.059Z,3.38
2023-05-21T19:38:12.098Z,3.22
2023-05-21T19:41:53.906Z,3.05
2023-05-21T19:45:35.699Z,7.63
2023-05-21T19:49:19.782Z,3.00
2023-05-21T19:53:01.740Z,2.72
2023-05-21T19:56:43.488Z,2.80
2023-05-21T20:00:26.384Z,3.30
2023-05-21T20:04:08.184Z,2.90
2023-05-21T20:07:49.979Z,6.18
2023-05-21T20:11:31.871Z,3.13
2023-05-21T20:15:14.455Z,2.90
2023-05-21T20:18:57.953Z,2.92
2023-05-21T20:22:39.757Z,3.33
2023-05-21T20:26:26.122Z,2.85
2023-05-21T20:30:08.378Z,3.25
2023-05-21T20:33:52.304Z,3.72
2023-05-21T20:37:34.204Z,3.40
2023-05-21T20:41:16.045Z,2.97
2023-05-21T20:45:01.735Z,3.08
2023-05-21T20:48:43.640Z,3.10
2023-05-21T20:52:25.935Z,2.80
2023-05-21T20:56:09.125Z,3.20
2023-05-21T20:59:53.888Z,3.58
2023-05-21T21:03:36.471Z,3.92
2023-05-21T21:07:19.190Z,3.65
2023-05-21T21:11:01.048Z,3.78
2023-05-21T21:14:42.880Z,3.67
2023-05-21T21:18:24.611Z,3.78
2023-05-21T21:22:06.360Z,3.20
2023-05-21T21:25:48.109Z,3.17
2023-05-21T21:29:29.866Z,3.70
2023-05-21T21:33:12.021Z,4.30
2023-05-21T21:36:54.529Z,4.97
2023-05-21T21:40:36.451Z,4.05
2023-05-21T21:44:18.317Z,3.83
2023-05-21T21:48:00.211Z,3.80
2023-05-21T21:51:42.189Z,3.60
2023-05-21T21:55:24.156Z,3.33
2023-05-21T21:59:05.972Z,3.33
2023-05-21T22:02:47.853Z,3.58
2023-05-21T22:06:29.940Z,3.70
2023-05-21T22:10:12.397Z,3.50
2023-05-21T22:13:54.152Z,3.33
2023-05-21T22:17:35.998Z,3.17
2023-05-21T22:21:18.544Z,3.80
2023-05-21T22:25:00.346Z,4.25
2023-05-21T22:28:42.281Z,4.43
2023-05-21T22:32:24.305Z,3.88
2023-05-21T22:36:06.607Z,4.40
2023-05-21T22:39:48.411Z,3.80
2023-05-21T22:43:30.415Z,3.90
2023-05-21T22:47:12.284Z,4.15
2023-05-21T22:50:54.409Z,4.20
2023-05-21T22:54:36.323Z,3.83
2023-05-21T22:58:18.795Z,3.67
2023-05-21T23:02:00.979Z,3.80
2023-05-21T23:05:43.000Z,3.65
2023-05-21T23:09:24.994Z,4.63
2023-05-21T23:13:06.752Z,4.15
2023-05-21T23:16:48.538Z,3.92
2023-05-21T23:20:32.359Z,3.40
2023-05-21T23:24:14.181Z,3.70
2023-05-21T23:27:55.989Z,3.75
2023-05-21T23:31:37.787Z,3.38
2023-05-21T23:35:19.804Z,3.70
2023-05-21T23:39:01.564Z,3.72
2023-05-21T23:42:43.607Z,3.95
2023-05-21T23:46:25.433Z,3.97
2023-05-21T23:50:07.887Z,5.03
2023-05-21T23:53:49.738Z,5.00
2023-05-21T23:57:31.471Z,4.35
